Time;durP1;ratioP1;P1;durP2;ratioP2;P2;SDS_P1;SDS_P2;PMS_P1;PMS_P2;Temp;Humidity;BMP_temperature;BMP_pressure;BME280_temperature;BME280_humidity;BME280_pressure;Samples;Min_cycle;Max_cycle;Signal;HPM_P1;HPM_P2
2023/08/31 00:01:48;;;;;;;17.83;8.82;;;;;;;20.64;100.00;96813.53;5012697;28;20054;-74
2023/08/31 00:04:14;;;;;;;15.77;8.70;;;;;;;20.56;100.00;96810.84;5029112;28;20029;-74
2023/08/31 00:06:45;;;;;;;14.80;9.13;;;;;;;20.53;100.00;96819.34;5029139;28;20017;-74
2023/08/31 00:09:13;;;;;;;13.70;9.20;;;;;;;20.45;100.00;96822.97;5028794;28;20032;-74
2023/08/31 00:11:39;;;;;;;13.82;9.10;;;;;;;20.43;100.00;96830.41;5028850;28;20026;-74
2023/08/31 00:14:04;;;;;;;11.63;8.82;;;;;;;20.45;100.00;96827.53;5029041;28;20028;-73
2023/08/31 00:16:30;;;;;;;15.93;9.65;;;;;;;20.55;100.00;96822.72;5030049;28;20053;-75
2023/08/31 00:18:59;;;;;;;11.77;7.65;;;;;;;20.65;100.00;96826.09;5012422;28;20120;-75
2023/08/31 00:21:25;;;;;;;14.57;7.80;;;;;;;20.70;100.00;96821.00;5040621;28;20059;-75
2023/08/31 00:23:50;;;;;;;19.23;9.38;;;;;;;20.75;100.00;96818.59;5065254;28;20074;-74
2023/08/31 00:26:16;;;;;;;15.18;8.95;;;;;;;20.85;100.00;96827.41;5048595;28;20029;-74
2023/08/31 00:28:42;;;;;;;15.27;9.52;;;;;;;20.78;100.00;96818.25;5048558;28;20025;-74
2023/08/31 00:31:11;;;;;;;14.65;8.85;;;;;;;20.79;100.00;96814.53;5031773;28;20032;-75
2023/08/31 00:33:40;;;;;;;14.75;8.38;;;;;;;20.85;100.00;96821.97;5048399;28;20066;-75
2023/08/31 00:36:05;;;;;;;13.45;8.52;;;;;;;20.90;100.00;96818.72;5048179;28;20084;-74
2023/08/31 00:38:31;;;;;;;16.48;8.38;;;;;;;20.83;100.00;96821.28;5048410;28;20021;-73
2023/08/31 00:40:56;;;;;;;16.17;8.60;;;;;;;20.82;100.00;96825.03;5065090;28;20039;-73
2023/08/31 00:43:22;;;;;;;11.77;8.68;;;;;;;20.78;100.00;96834.56;5031605;28;20080;-74
2023/08/31 00:45:52;;;;;;;14.55;8.50;;;;;;;20.61;100.00;96835.63;5012219;28;20028;-74
2023/08/31 00:48:18;;;;;;;15.27;8.40;;;;;;;20.55;100.00;96833.59;5019399;28;20025;-74
2023/08/31 00:50:48;;;;;;;13.30;8.45;;;;;;;20.49;100.00;96837.03;5047974;28;20397;-74
2023/08/31 00:53:15;;;;;;;11.73;8.45;;;;;;;20.46;100.00;96835.50;5047706;28;20029;-74
2023/08/31 00:55:40;;;;;;;12.13;8.10;;;;;;;20.56;100.00;96838.03;5048186;28;20024;-74
2023/08/31 00:58:09;;;;;;;15.95;8.13;;;;;;;20.55;100.00;96829.03;5048089;28;20035;-76
2023/08/31 01:01:07;;;;;;;15.68;8.45;;;;;;;20.46;100.00;96824.63;5048215;28;20036;-76
2023/08/31 01:03:43;;;;;;;14.80;8.30;;;;;;;20.38;100.00;96832.81;5031387;28;20041;-73
2023/08/31 01:06:19;;;;;;;13.48;8.23;;;;;;;20.37;100.00;96836.53;5031156;28;20036;-74
2023/08/31 01:09:26;;;;;;;12.80;8.10;;;;;;;20.42;100.00;96838.75;5034745;28;20025;-73
2023/08/31 01:12:04;;;;;;;14.82;8.25;;;;;;;20.47;100.00;96847.22;5064648;28;20041;-75
2023/08/31 01:14:34;;;;;;;13.98;8.13;;;;;;;20.52;100.00;96851.09;5027810;28;20033;-74
2023/08/31 01:17:02;;;;;;;14.27;8.05;;;;;;;20.51;100.00;96852.16;5028012;28;20104;-75
2023/08/31 01:19:51;;;;;;;14.27;8.13;;;;;;;20.58;100.00;96855.00;5011260;28;20025;-75
2023/08/31 01:22:43;;;;;;;13.85;9.23;;;;;;;20.73;100.00;96857.88;5011443;28;20029;-73
2023/08/31 01:25:09;;;;;;;14.00;8.90;;;;;;;20.72;100.00;96861.59;5024636;28;20178;-74
2023/08/31 01:27:38;;;;;;;17.52;9.90;;;;;;;20.65;100.00;96868.75;5011205;28;20033;-75
2023/08/31 01:30:04;;;;;;;14.70;8.95;;;;;;;20.44;100.00;96855.72;5026518;28;20472;-74
2023/08/31 01:32:31;;;;;;;15.77;9.77;;;;;;;20.43;100.00;96862.16;5047043;28;20137;-73
2023/08/31 01:35:01;;;;;;;15.55;9.98;;;;;;;20.28;100.00;96853.03;5011474;28;20061;-73
2023/08/31 01:37:55;;;;;;;20.70;10.18;;;;;;;20.23;100.00;96849.97;5027643;28;20108;-74
2023/08/31 01:40:25;;;;;;;13.18;9.55;;;;;;;20.14;100.00;96845.56;5011637;28;20137;-75
2023/08/31 01:42:51;;;;;;;18.52;9.60;;;;;;;20.03;100.00;96858.44;5027540;28;20373;-75
2023/08/31 01:45:21;;;;;;;16.17;9.38;;;;;;;19.85;100.00;96865.91;5027695;28;20086;-73
2023/08/31 01:47:47;;;;;;;14.23;9.77;;;;;;;19.78;100.00;96864.88;5046633;28;20546;-73
2023/08/31 01:50:12;;;;;;;17.38;10.18;;;;;;;19.83;100.00;96864.41;5048612;28;20100;-75
2023/08/31 01:52:38;;;;;;;14.90;9.40;;;;;;;19.66;100.00;96863.53;5030553;28;20026;-74
2023/08/31 01:55:05;;;;;;;14.48;9.60;;;;;;;19.62;100.00;96867.63;5047667;28;20025;-74
2023/08/31 01:57:31;;;;;;;14.35;9.32;;;;;;;19.61;100.00;96865.06;5046984;28;20093;-75
2023/08/31 01:59:57;;;;;;;13.77;9.73;;;;;;;19.56;100.00;96868.28;5047196;28;20456;-75
2023/08/31 02:02:23;;;;;;;16.30;9.70;;;;;;;19.60;100.00;96872.34;5030637;28;20024;-75
2023/08/31 02:04:50;;;;;;;15.68;9.25;;;;;;;19.56;100.00;96878.28;5029302;28;20029;-75
2023/08/31 02:07:16;;;;;;;19.15;9.27;;;;;;;19.45;100.00;96880.28;5047066;28;20032;-74
2023/08/31 02:09:41;;;;;;;14.35;9.20;;;;;;;19.43;100.00;96885.03;5046861;28;20037;-74
2023/08/31 02:12:09;;;;;;;13.68;9.70;;;;;;;19.43;100.00;96884.19;5046903;28;20376;-74
2023/08/31 02:14:35;;;;;;;18.30;9.15;;;;;;;19.41;100.00;96880.81;5048051;28;20021;-75
2023/08/31 02:17:00;;;;;;;13.45;9.43;;;;;;;19.42;100.00;96877.06;5030295;28;20036;-74
2023/08/31 02:19:26;;;;;;;15.82;9.35;;;;;;;19.35;100.00;96874.13;5046967;28;20061;-73
2023/08/31 02:21:51;;;;;;;14.80;9.15;;;;;;;19.34;100.00;96885.16;5046595;28;20048;-74
2023/08/31 02:24:17;;;;;;;14.85;10.30;;;;;;;19.32;100.00;96881.72;5046907;28;20491;-74
2023/08/31 02:26:42;;;;;;;14.52;9.60;;;;;;;19.34;100.00;96887.88;5046392;28;20028;-74
2023/08/31 02:29:08;;;;;;;13.57;9.40;;;;;;;19.36;100.00;96897.53;5046801;28;20498;-75
2023/08/31 02:31:33;;;;;;;20.65;9.95;;;;;;;19.24;100.00;96896.13;5047907;28;20025;-75
2023/08/31 02:33:59;;;;;;;15.05;9.43;;;;;;;19.31;100.00;96901.75;5046441;28;20564;-75
2023/08/31 02:36:24;;;;;;;21.50;10.52;;;;;;;19.36;100.00;96902.09;5046589;28;20432;-73
2023/08/31 02:38:50;;;;;;;61.83;11.23;;;;;;;19.27;100.00;96894.94;5046368;28;20089;-75
2023/08/31 02:41:16;;;;;;;28.05;10.90;;;;;;;19.34;100.00;96910.41;5046374;28;20046;-74
2023/08/31 02:43:42;;;;;;;23.15;9.35;;;;;;;19.32;100.00;96914.28;5029887;28;20025;-75
2023/08/31 02:46:08;;;;;;;15.13;9.40;;;;;;;19.26;100.00;96909.50;5047829;28;20522;-74
2023/08/31 02:48:33;;;;;;;16.95;9.60;;;;;;;19.14;100.00;96899.97;5046508;28;20025;-74
2023/08/31 02:51:02;;;;;;;25.52;10.98;;;;;;;19.08;100.00;96900.63;5046186;28;20025;-74
2023/08/31 02:53:32;;;;;;;17.52;10.30;;;;;;;18.93;100.00;96912.09;5046485;28;20029;-74
2023/08/31 02:55:57;;;;;;;16.08;10.40;;;;;;;18.85;100.00;96917.50;5029994;28;20496;-74
2023/08/31 02:58:23;;;;;;;29.15;11.20;;;;;;;18.82;100.00;96917.81;5046231;28;20031;-74
2023/08/31 03:00:48;;;;;;;21.90;11.90;;;;;;;18.69;100.00;96922.81;5046309;28;20144;-73
2023/08/31 03:03:15;;;;;;;27.55;12.77;;;;;;;18.60;100.00;96912.09;5046121;28;20476;-73
2023/08/31 03:05:41;;;;;;;26.05;11.68;;;;;;;18.54;100.00;96916.28;5046169;28;20060;-72
2023/08/31 03:08:06;;;;;;;24.50;11.32;;;;;;;18.55;100.00;96920.69;5029465;28;20052;-75
2023/08/31 03:10:32;;;;;;;19.63;11.13;;;;;;;18.49;100.00;96934.00;5047274;28;20452;-75
2023/08/31 03:12:57;;;;;;;20.08;10.48;;;;;;;18.43;100.00;96936.31;5029531;28;20381;-75
2023/08/31 03:15:23;;;;;;;19.90;10.93;;;;;;;18.28;100.00;96926.22;5029224;28;20411;-75
2023/08/31 03:17:49;;;;;;;20.42;9.90;;;;;;;18.15;100.00;96929.31;5029400;28;20157;-74
2023/08/31 03:20:15;;;;;;;20.92;10.45;;;;;;;18.18;100.00;96941.72;5029262;28;20036;-75
2023/08/31 03:22:40;;;;;;;18.80;10.77;;;;;;;18.05;100.00;96938.56;5025436;28;20032;-73
2023/08/31 03:25:06;;;;;;;23.25;10.15;;;;;;;18.06;100.00;96922.16;5029304;28;20033;-74
2023/08/31 03:27:32;;;;;;;32.72;11.13;;;;;;;18.12;100.00;96931.53;5047196;28;20346;-74
2023/08/31 03:29:57;;;;;;;32.88;10.93;;;;;;;18.15;100.00;96933.91;5029267;28;20487;-75
2023/08/31 03:32:23;;;;;;;17.83;10.43;;;;;;;18.16;100.00;96943.72;5045515;28;20054;-73
2023/08/31 03:34:48;;;;;;;24.58;10.32;;;;;;;18.11;100.00;96933.38;5029221;28;20077;-74
2023/08/31 03:37:14;;;;;;;33.30;10.73;;;;;;;18.04;100.00;96937.72;5029070;28;20025;-74
2023/08/31 03:39:41;;;;;;;22.50;9.80;;;;;;;18.16;100.00;96960.81;5028959;28;20028;-73
2023/08/31 03:42:06;;;;;;;20.50;9.30;;;;;;;18.15;100.00;96942.03;5029536;28;20407;-74
2023/08/31 03:44:32;;;;;;;18.55;9.65;;;;;;;18.15;100.00;96944.75;5045527;28;20029;-74
2023/08/31 03:46:57;;;;;;;21.30;9.23;;;;;;;18.12;100.00;96943.19;5045599;28;20473;-74
2023/08/31 03:49:23;;;;;;;13.70;7.53;;;;;;;18.25;100.00;96945.50;5045341;28;20060;-74
2023/08/31 03:51:49;;;;;;;16.67;9.63;;;;;;;18.35;100.00;96957.09;5045499;28;20039;-74
2023/08/31 03:54:14;;;;;;;14.95;8.20;;;;;;;18.28;100.00;96945.16;5045313;28;20033;-74
2023/08/31 03:56:40;;;;;;;21.33;10.40;;;;;;;18.22;100.00;96951.22;5028981;28;20496;-75
2023/08/31 03:59:06;;;;;;;18.15;9.30;;;;;;;18.21;100.00;96952.25;5045396;28;20064;-74
2023/08/31 04:01:31;;;;;;;15.40;8.27;;;;;;;18.26;100.00;96956.19;5034856;28;20022;-73
2023/08/31 04:03:57;;;;;;;20.98;8.77;;;;;;;18.30;100.00;96960.25;5031174;28;20465;-78
2023/08/31 04:06:22;;;;;;;18.73;8.55;;;;;;;18.33;100.00;96948.28;5019647;28;20033;-75
2023/08/31 04:08:48;;;;;;;16.67;8.05;;;;;;;18.43;100.00;96973.38;5033758;28;20033;-73
2023/08/31 04:11:13;;;;;;;18.02;7.45;;;;;;;18.55;100.00;96969.44;5016596;28;20021;-73
2023/08/31 04:13:39;;;;;;;17.05;7.65;;;;;;;18.64;100.00;96973.91;5028455;28;20060;-74
2023/08/31 04:16:05;;;;;;;14.95;8.18;;;;;;;18.75;100.00;96970.94;5009970;28;20116;-73
2023/08/31 04:18:30;;;;;;;17.23;9.60;;;;;;;18.90;100.00;96985.63;5041781;28;20032;-73
2023/08/31 04:20:58;;;;;;;26.73;8.13;;;;;;;19.01;100.00;96991.78;5041873;28;20035;-74
2023/08/31 04:23:24;;;;;;;15.20;7.00;;;;;;;19.05;100.00;96993.13;5024917;28;20025;-74
2023/08/31 04:25:51;;;;;;;19.58;7.38;;;;;;;19.11;100.00;97001.47;5008834;28;20022;-74
2023/08/31 04:28:16;;;;;;;16.35;7.43;;;;;;;19.10;100.00;97004.38;5028422;28;20484;-75
2023/08/31 04:30:43;;;;;;;15.20;6.95;;;;;;;19.12;100.00;97010.47;5031147;28;20032;-74
2023/08/31 04:33:08;;;;;;;28.63;7.70;;;;;;;19.17;100.00;96991.84;5048166;28;20066;-75
2023/08/31 04:35:34;;;;;;;12.23;6.97;;;;;;;19.24;100.00;96998.34;5030329;28;20025;-74
2023/08/31 04:37:59;;;;;;;20.63;11.38;;;;;;;19.28;100.00;97013.28;5011867;28;20037;-75
2023/08/31 04:40:25;;;;;;;16.02;7.03;;;;;;;19.33;100.00;97008.19;5028305;28;20162;-75
2023/08/31 04:42:51;;;;;;;12.45;5.93;;;;;;;19.45;100.00;97013.22;5028300;28;20117;-73
2023/08/31 04:45:16;;;;;;;11.93;5.88;;;;;;;19.50;100.00;97004.59;5020047;28;20025;-75
2023/08/31 04:47:42;;;;;;;20.80;6.53;;;;;;;19.73;100.00;97010.25;5011574;28;20052;-75
2023/08/31 04:50:08;;;;;;;18.00;6.60;;;;;;;19.92;100.00;97009.97;5011635;28;20100;-74
2023/08/31 04:52:34;;;;;;;18.60;6.78;;;;;;;20.10;100.00;97015.28;5016534;28;20055;-74
2023/08/31 04:55:03;;;;;;;26.50;13.23;;;;;;;20.29;100.00;97023.16;5039797;28;20026;-75
2023/08/31 04:57:29;;;;;;;16.65;6.88;;;;;;;20.42;100.00;97026.22;5047866;28;20044;-75
2023/08/31 04:59:55;;;;;;;32.33;7.88;;;;;;;20.57;100.00;97020.97;5047771;28;20560;-73
2023/08/31 05:02:20;;;;;;;13.48;5.85;;;;;;;20.78;100.00;97026.72;5032422;28;20049;-73
2023/08/31 05:04:46;;;;;;;25.05;7.18;;;;;;;20.94;100.00;97019.41;5030256;28;20416;-74
2023/08/31 05:07:11;;;;;;;11.63;6.95;;;;;;;21.13;100.00;97020.94;5030960;28;20506;-74
2023/08/31 05:09:37;;;;;;;19.67;7.55;;;;;;;21.02;100.00;97021.25;5047636;28;20128;-73
2023/08/31 05:12:03;;;;;;;24.73;7.28;;;;;;;21.03;100.00;97029.25;5047767;28;20052;-73
2023/08/31 05:14:28;;;;;;;11.35;6.60;;;;;;;20.97;100.00;97023.66;5047603;28;20116;-73
2023/08/31 05:16:54;;;;;;;15.07;7.50;;;;;;;20.91;100.00;97021.63;5044250;28;20392;-73
2023/08/31 05:19:20;;;;;;;15.90;7.32;;;;;;;20.82;100.00;97020.78;5010918;28;20021;-74
2023/08/31 05:21:46;;;;;;;18.05;9.57;;;;;;;20.93;100.00;97022.28;5010976;28;20036;-74
2023/08/31 05:24:11;;;;;;;15.25;7.65;;;;;;;21.02;100.00;97016.69;5027674;28;20438;-73
2023/08/31 05:26:37;;;;;;;22.85;8.00;;;;;;;21.28;100.00;97016.50;5027738;28;20045;-74
2023/08/31 05:29:04;;;;;;;14.70;5.63;;;;;;;21.40;100.00;97012.38;5027532;28;20030;-74
2023/08/31 05:31:29;;;;;;;9.48;5.80;;;;;;;21.53;100.00;97011.81;5043417;28;20039;-75
2023/08/31 05:33:55;;;;;;;15.20;4.75;;;;;;;21.99;100.00;97002.78;5034742;28;20053;-74
2023/08/31 05:36:21;;;;;;;13.35;5.40;;;;;;;22.36;100.00;97004.75;5047058;28;20028;-73
2023/08/31 05:38:46;;;;;;;16.67;5.57;;;;;;;22.70;100.00;96990.69;5033308;28;20029;-74
2023/08/31 05:41:12;;;;;;;30.45;13.20;;;;;;;22.95;100.00;96997.59;5027173;28;20029;-74
2023/08/31 05:43:40;;;;;;;14.00;4.88;;;;;;;24.33;100.00;96993.22;5043905;28;20352;-75
2023/08/31 05:46:06;;;;;;;52.63;28.13;;;;;;;25.83;100.00;96988.09;5030894;28;20025;-74
2023/08/31 05:48:32;;;;;;;12.10;4.80;;;;;;;27.09;93.08;96969.00;5030531;28;20029;-74
2023/08/31 05:50:58;;;;;;;9.10;3.88;;;;;;;27.53;87.40;96972.97;5011103;28;20432;-74
2023/08/31 05:53:23;;;;;;;6.93;3.90;;;;;;;27.83;84.24;96966.75;5026895;28;20051;-74
2023/08/31 05:55:49;;;;;;;8.10;3.80;;;;;;;27.26;84.64;96975.72;5010575;28;20025;-74
2023/08/31 05:58:14;;;;;;;12.57;4.32;;;;;;;26.30;92.89;96974.38;5027710;28;20358;-74
2023/08/31 06:00:40;;;;;;;14.07;4.65;;;;;;;25.72;97.28;96981.28;5047100;28;20181;-73
2023/08/31 06:03:05;;;;;;;23.70;5.40;;;;;;;25.23;100.00;96996.97;5046864;28;20021;-74
2023/08/31 06:05:32;;;;;;;14.73;5.70;;;;;;;24.90;100.00;96998.63;5030040;28;20036;-74
2023/08/31 06:07:58;;;;;;;17.40;5.85;;;;;;;24.89;100.00;96992.28;5046705;28;20017;-73
2023/08/31 06:10:24;;;;;;;21.30;9.00;;;;;;;25.12;100.00;96989.31;5030131;28;20441;-77
2023/08/31 06:12:50;;;;;;;48.95;20.13;;;;;;;26.33;97.84;96982.19;5046553;28;20025;-77
2023/08/31 06:15:17;;;;;;;32.95;11.55;;;;;;;27.85;89.03;96977.50;5046829;28;20425;-77
2023/08/31 06:17:42;;;;;;;13.50;4.95;;;;;;;28.68;78.76;96965.47;5046833;28;20032;-74
2023/08/31 06:20:09;;;;;;;21.55;5.43;;;;;;;29.92;71.00;96957.97;5046532;28;20025;-74
2023/08/31 06:22:34;;;;;;;79.43;10.10;;;;;;;30.69;64.38;96963.75;5054951;28;20021;-74
2023/08/31 06:25:00;;;;;;;72.68;8.48;;;;;;;31.24;59.80;96956.91;5046344;28;20115;-75
2023/08/31 06:27:26;;;;;;;55.78;7.13;;;;;;;32.08;56.85;96947.25;5029884;28;20085;-74
2023/08/31 06:29:51;;;;;;;20.75;4.93;;;;;;;32.66;52.42;96958.13;5046828;28;20396;-73
2023/08/31 06:32:18;;;;;;;22.33;4.47;;;;;;;33.24;50.20;96964.16;5029492;28;20036;-73
2023/08/31 06:34:44;;;;;;;16.30;3.83;;;;;;;33.85;47.49;96962.34;5034816;28;20481;-75
2023/08/31 06:37:10;;;;;;;38.17;5.53;;;;;;;34.23;46.38;96964.28;5041880;28;20495;-75
2023/08/31 06:39:35;;;;;;;24.65;5.28;;;;;;;34.25;46.46;96962.91;5011163;28;20033;-75
2023/08/31 06:42:02;;;;;;;20.58;4.40;;;;;;;34.58;44.40;96967.44;5023736;28;20081;-75
2023/08/31 06:44:29;;;;;;;41.72;7.20;;;;;;;34.31;44.92;96969.34;5026335;28;20025;-74
2023/08/31 06:46:55;;;;;;;19.45;4.88;;;;;;;34.56;43.51;96972.44;5025806;28;20040;-74
2023/08/31 06:49:22;;;;;;;7.15;2.95;;;;;;;33.70;41.96;96962.97;5029125;28;20552;-73
2023/08/31 06:51:47;;;;;;;14.63;3.83;;;;;;;33.23;44.09;96978.28;5046168;28;20048;-74
2023/08/31 06:54:13;;;;;;;55.70;4.90;;;;;;;33.67;42.34;96971.81;5028058;28;20069;-74
2023/08/31 06:56:39;;;;;;;11.52;2.70;;;;;;;34.04;39.79;96965.66;5023236;28;20032;-73
2023/08/31 06:59:04;;;;;;;10.13;2.15;;;;;;;34.11;37.60;96960.78;5029392;28;20445;-74
2023/08/31 07:01:30;;;;;;;7.53;2.20;;;;;;;34.30;37.96;96962.97;5035314;28;20503;-74
2023/08/31 07:03:55;;;;;;;8.85;2.30;;;;;;;34.27;37.18;96968.22;5037902;28;20024;-74
2023/08/31 07:06:21;;;;;;;8.82;2.13;;;;;;;34.81;35.27;96942.16;5018398;28;20101;-73
2023/08/31 07:08:47;;;;;;;3.67;2.50;;;;;;;34.20;35.32;96956.44;5045843;28;20029;-74
2023/08/31 07:11:14;;;;;;;3.03;1.77;;;;;;;35.11;34.61;96951.91;5039259;28;20030;-74
2023/08/31 07:13:39;;;;;;;6.53;2.30;;;;;;;35.66;34.57;96955.16;5009626;28;20499;-75
2023/08/31 07:16:05;;;;;;;6.15;3.65;;;;;;;36.14;33.88;96950.44;5034556;28;20037;-74
2023/08/31 07:18:31;;;;;;;3.65;2.13;;;;;;;37.07;32.71;96960.50;5025765;28;20025;-75
2023/08/31 07:20:57;;;;;;;3.33;2.05;;;;;;;36.32;32.55;96952.75;5040998;28;20029;-74
2023/08/31 07:23:23;;;;;;;14.77;10.32;;;;;;;36.63;32.44;96960.13;5029066;28;20036;-75
2023/08/31 07:25:48;;;;;;;4.53;2.42;;;;;;;37.04;32.04;96949.09;5040522;28;20029;-74
2023/08/31 07:28:14;;;;;;;5.85;2.60;;;;;;;36.07;33.08;96955.41;5029409;28;20048;-74
2023/08/31 07:30:40;;;;;;;5.38;2.30;;;;;;;34.99;34.57;96962.34;5059592;28;20025;-73
2023/08/31 07:33:06;;;;;;;15.95;2.33;;;;;;;35.38;34.42;96958.25;5021374;28;20436;-74
2023/08/31 07:35:32;;;;;;;4.60;2.22;;;;;;;34.89;34.50;96956.69;5025811;28;20022;-74
2023/08/31 07:37:57;;;;;;;5.00;2.30;;;;;;;34.19;35.63;96965.88;5009245;28;20033;-75
2023/08/31 07:40:23;;;;;;;19.63;5.05;;;;;;;34.63;35.13;96956.44;5025515;28;20082;-74
2023/08/31 07:42:48;;;;;;;3.58;2.45;;;;;;;34.62;35.13;96963.09;5009156;28;20037;-74
2023/08/31 07:45:14;;;;;;;7.78;2.50;;;;;;;34.10;35.40;96967.44;5009046;28;20038;-76
2023/08/31 07:47:39;;;;;;;6.70;3.75;;;;;;;34.14;35.97;96968.59;5025571;28;20033;-75
2023/08/31 07:50:06;;;;;;;4.10;2.15;;;;;;;33.98;35.38;96969.47;5025538;28;20042;-74
2023/08/31 07:52:31;;;;;;;11.35;2.67;;;;;;;33.82;35.62;96964.78;5008987;28;20036;-74
2023/08/31 07:54:57;;;;;;;16.15;3.05;;;;;;;33.55;35.71;96959.94;5023013;28;20025;-74
2023/08/31 07:57:23;;;;;;;21.00;3.17;;;;;;;33.14;36.88;96955.69;5028603;28;20025;-74
2023/08/31 07:59:48;;;;;;;14.32;3.13;;;;;;;32.50;36.94;96973.56;5046765;28;20111;-72
2023/08/31 08:02:16;;;;;;;19.63;3.78;;;;;;;32.07;37.45;96970.47;5046780;28;20588;-72
2023/08/31 08:04:41;;;;;;;26.35;3.90;;;;;;;32.31;37.40;96974.84;5032209;28;20029;-73
2023/08/31 08:07:08;;;;;;;35.25;4.13;;;;;;;32.83;36.90;96971.97;5032074;28;20520;-73
2023/08/31 08:09:34;;;;;;;20.45;3.75;;;;;;;33.17;36.17;96973.72;5029951;28;20029;-73
2023/08/31 08:11:59;;;;;;;14.82;2.80;;;;;;;32.83;36.78;96974.75;5012089;28;20032;-74
2023/08/31 08:14:25;;;;;;;8.00;2.22;;;;;;;32.26;36.77;96971.97;5011909;28;20025;-74
2023/08/31 08:16:50;;;;;;;9.20;2.70;;;;;;;33.18;35.50;96972.66;5045203;28;20056;-73
2023/08/31 08:19:22;;;;;;;14.57;2.97;;;;;;;34.34;34.10;96957.72;5032036;28;20020;-73
2023/08/31 08:21:47;;;;;;;85.00;8.10;;;;;;;34.85;33.61;96964.72;5048458;28;20384;-75
2023/08/31 08:24:13;;;;;;;26.05;3.00;;;;;;;35.88;32.05;96955.00;5031877;28;20085;-75
2023/08/31 08:26:38;;;;;;;10.05;2.35;;;;;;;38.07;29.98;96952.34;5031459;28;20056;-74
2023/08/31 08:29:04;;;;;;;21.13;3.55;;;;;;;38.95;28.30;96940.22;5031684;28;20427;-73
2023/08/31 08:31:29;;;;;;;5.32;2.17;;;;;;;40.12;26.96;96933.63;5031263;28;20040;-74
2023/08/31 08:33:55;;;;;;;9.35;3.30;;;;;;;40.14;26.82;96942.56;5048168;28;20052;-74
2023/08/31 08:36:20;;;;;;;7.93;2.28;;;;;;;40.18;26.11;96932.41;5031686;28;20472;-74
2023/08/31 08:38:46;;;;;;;75.35;5.93;;;;;;;40.79;26.02;96930.50;5048045;28;20108;-73
2023/08/31 08:41:11;;;;;;;13.13;2.88;;;;;;;40.79;25.60;96926.84;5048165;28;20021;-73
2023/08/31 08:43:37;;;;;;;15.00;4.32;;;;;;;40.76;24.54;96917.06;5051938;28;20379;-73
2023/08/31 08:46:05;;;;;;;5.07;2.95;;;;;;;40.77;24.74;96924.34;5028151;28;20421;-73
2023/08/31 08:48:32;;;;;;;12.43;3.25;;;;;;;40.52;25.09;96917.09;5014216;28;20564;-73
2023/08/31 08:50:58;;;;;;;49.78;6.15;;;;;;;41.03;25.44;96922.00;5028132;28;20057;-73
2023/08/31 08:53:23;;;;;;;17.77;3.72;;;;;;;41.56;25.08;96925.38;5010776;28;20071;-74
2023/08/31 08:55:49;;;;;;;26.75;3.38;;;;;;;41.53;25.07;96921.16;5027879;28;20093;-74
2023/08/31 08:58:14;;;;;;;7.38;2.78;;;;;;;40.58;25.04;96913.09;5011657;28;20498;-73
2023/08/31 09:00:40;;;;;;;5.95;2.83;;;;;;;40.79;25.47;96930.50;5027641;28;20029;-73
2023/08/31 09:03:06;;;;;;;7.45;3.30;;;;;;;40.05;25.41;96917.97;5011678;28;20503;-73
2023/08/31 09:05:34;;;;;;;20.63;4.72;;;;;;;41.08;25.21;96924.72;5027882;28;20029;-74
2023/08/31 09:08:01;;;;;;;8.15;3.33;;;;;;;39.89;25.49;96912.81;5011546;28;20403;-74
2023/08/31 09:10:37;;;;;;;11.18;3.55;;;;;;;39.09;26.90;96925.56;5028127;28;20029;-73
2023/08/31 09:13:08;;;;;;;14.18;3.53;;;;;;;39.69;26.18;96918.63;5011117;28;20420;-74
2023/08/31 09:15:39;;;;;;;69.07;6.40;;;;;;;40.82;25.76;96917.81;5027545;28;20030;-75
2023/08/31 09:18:04;;;;;;;11.60;3.45;;;;;;;41.11;24.91;96913.72;5041903;28;20056;-74
2023/08/31 09:20:30;;;;;;;19.92;3.83;;;;;;;40.62;25.21;96910.53;5048877;28;20117;-74
2023/08/31 09:22:56;;;;;;;4.75;3.03;;;;;;;39.56;25.77;96906.13;5043048;28;20419;-74
2023/08/31 09:25:21;;;;;;;5.35;2.92;;;;;;;39.36;25.50;96909.97;5027838;28;20449;-73
2023/08/31 09:27:48;;;;;;;6.03;3.30;;;;;;;39.32;25.61;96899.63;5027541;28;20037;-73
2023/08/31 09:30:13;;;;;;;9.38;4.30;;;;;;;39.47;25.23;96889.13;5044266;28;20033;-74
2023/08/31 09:32:41;;;;;;;12.63;3.95;;;;;;;37.73;26.51;96896.28;5010955;28;20071;-74
2023/08/31 09:35:11;;;;;;;7.45;4.72;;;;;;;38.23;26.58;96896.13;5027496;28;20039;-73
2023/08/31 09:37:36;;;;;;;14.85;4.63;;;;;;;39.01;26.07;96905.47;5011172;28;20037;-74
2023/08/31 09:40:06;;;;;;;3.95;2.92;;;;;;;38.25;26.14;96901.41;5011028;28;20047;-72
2023/08/31 09:42:40;;;;;;;9.82;3.70;;;;;;;39.56;26.19;96903.34;5027690;28;20029;-72
2023/08/31 09:45:06;;;;;;;9.20;3.10;;;;;;;39.78;25.44;96900.88;5027662;28;20408;-71
2023/08/31 09:50:17;;;;;;;28.70;5.55;;;;;;;40.55;24.77;96907.25;5027879;28;20093;-72
2023/08/31 09:52:44;;;;;;;18.60;3.90;;;;;;;41.43;23.89;96904.50;5027480;28;20025;-73
2023/08/31 09:55:11;;;;;;;34.28;4.78;;;;;;;41.37;23.44;96904.91;5047364;28;20112;-73
2023/08/31 09:57:37;;;;;;;105.80;9.43;;;;;;;42.17;23.25;96905.41;5047056;28;20036;-73
2023/08/31 10:00:02;;;;;;;7.68;3.67;;;;;;;41.56;23.77;96914.13;5046962;28;20478;-73
2023/08/31 10:02:29;;;;;;;149.23;12.32;;;;;;;41.24;24.11;96911.28;5047105;28;20021;-73
2023/08/31 10:04:56;;;;;;;68.47;6.93;;;;;;;41.50;24.12;96915.34;5047263;28;20045;-74
2023/08/31 10:07:21;;;;;;;38.88;4.72;;;;;;;40.51;24.88;96906.16;5030098;28;20033;-73
2023/08/31 10:09:47;;;;;;;12.57;3.67;;;;;;;41.67;23.92;96915.59;5046855;28;20472;-73
2023/08/31 10:12:14;;;;;;;24.60;4.63;;;;;;;41.98;23.24;96907.44;5046791;28;20025;-72
2023/08/31 10:14:40;;;;;;;380.15;29.30;;;;;;;42.69;22.65;96909.63;5048130;28;20441;-73
2023/08/31 10:17:05;;;;;;;52.55;7.05;;;;;;;43.66;21.71;96900.47;5046836;28;20805;-72
2023/08/31 10:19:31;;;;;;;9.40;3.13;;;;;;;44.17;21.89;96911.25;5005189;28;20140;-73
2023/08/31 10:22:01;;;;;;;13.70;3.08;;;;;;;43.89;22.03;96899.31;5026856;28;20029;-73
2023/08/31 10:25:01;;;;;;;25.13;4.28;;;;;;;43.47;21.88;96897.06;5026159;28;20078;-72
2023/08/31 10:27:27;;;;;;;5.25;3.03;;;;;;;42.68;21.80;96885.44;5026780;28;20025;-73
2023/08/31 10:29:53;;;;;;;7.05;3.45;;;;;;;43.12;22.09;96896.78;5026950;28;20097;-73
2023/08/31 10:32:19;;;;;;;7.07;3.65;;;;;;;42.36;22.76;96905.28;5026704;28;20453;-73
2023/08/31 10:35:04;;;;;;;8.68;3.15;;;;;;;41.83;23.04;96914.19;5030156;28;20037;-73
2023/08/31 10:37:29;;;;;;;18.25;4.35;;;;;;;40.76;24.06;96911.47;5046333;28;20033;-73
2023/08/31 10:40:15;;;;;;;13.52;3.83;;;;;;;40.21;24.44;96898.97;5030056;28;20132;-73
2023/08/31 10:42:42;;;;;;;33.55;4.00;;;;;;;41.51;23.75;96905.75;5046111;28;20048;-73
2023/08/31 10:45:08;;;;;;;6.15;3.38;;;;;;;42.34;23.27;96908.41;5046292;28;20021;-74
2023/08/31 10:47:41;;;;;;;7.97;3.80;;;;;;;41.78;22.77;96905.84;5046187;28;20471;-73
2023/08/31 10:50:24;;;;;;;3.97;3.00;;;;;;;41.46;23.36;96897.44;5046212;28;20032;-72
2023/08/31 10:52:50;;;;;;;5.13;3.08;;;;;;;43.44;22.78;96909.00;5046298;28;20455;-72
2023/08/31 10:55:16;;;;;;;11.48;3.55;;;;;;;43.81;21.77;96902.09;5046212;28;20033;-72
2023/08/31 10:57:42;;;;;;;8.20;3.85;;;;;;;44.26;21.41;96903.66;5045981;28;20036;-73
2023/08/31 11:00:08;;;;;;;11.20;3.35;;;;;;;42.75;22.17;96891.47;5046095;28;20109;-74
2023/08/31 11:02:37;;;;;;;4.28;3.13;;;;;;;43.23;21.98;96903.00;5040861;28;20032;-74
2023/08/31 11:05:09;;;;;;;5.50;3.22;;;;;;;41.12;23.56;96911.75;5025843;28;20112;-74
2023/08/31 11:07:35;;;;;;;6.22;3.08;;;;;;;39.69;23.95;96908.25;5009813;28;20025;-73
2023/08/31 11:10:11;;;;;;;4.68;3.35;;;;;;;38.42;25.53;96913.94;5018311;28;20033;-73
2023/08/31 11:12:38;;;;;;;5.55;3.10;;;;;;;37.68;25.89;96902.72;5047248;28;20032;-73
2023/08/31 11:15:05;;;;;;;6.22;3.70;;;;;;;36.79;27.27;96914.41;5045893;28;20024;-73
2023/08/31 11:17:32;;;;;;;3.85;3.00;;;;;;;36.54;26.90;96910.75;5045779;28;20108;-73
2023/08/31 11:19:58;;;;;;;12.05;3.60;;;;;;;36.06;27.52;96904.44;5026196;28;20052;-72
2023/08/31 11:22:23;;;;;;;4.65;3.45;;;;;;;35.38;27.92;96902.59;5025761;28;20022;-73
2023/08/31 11:24:49;;;;;;;11.52;7.10;;;;;;;35.22;28.63;96903.63;5026071;28;20033;-73